sensor_id;sensor_type;location;lat;lon;timestamp;P1;durP1;ratioP1;P2;durP2;ratioP2
54909;SDS011;63189;51.240;9.964;2022-11-13T00:00:26;11.00;;;8.32;;
54909;SDS011;63189;51.240;9.964;2022-11-13T00:02:52;11.68;;;9.15;;
54909;SDS011;63189;51.240;9.964;2022-11-13T00:05:17;11.07;;;8.38;;
54909;SDS011;63189;51.240;9.964;2022-11-13T00:07:42;11.82;;;8.52;;
54909;SDS011;63189;51.240;9.964;2022-11-13T00:10:08;10.38;;;7.80;;
54909;SDS011;63189;51.240;9.964;2022-11-13T00:12:33;11.27;;;8.55;;
54909;SDS011;63189;51.240;9.964;2022-11-13T00:14:58;10.85;;;7.95;;
54909;SDS011;63189;51.240;9.964;2022-11-13T00:17:24;11.13;;;8.25;;
54909;SDS011;63189;51.240;9.964;2022-11-13T00:19:49;9.80;;;8.18;;
54909;SDS011;63189;51.240;9.964;2022-11-13T00:22:14;11.85;;;8.93;;
54909;SDS011;63189;51.240;9.964;2022-11-13T00:24:40;13.25;;;9.05;;
54909;SDS011;63189;51.240;9.964;2022-11-13T00:27:05;14.70;;;9.55;;
54909;SDS011;63189;51.240;9.964;2022-11-13T00:29:31;12.40;;;8.65;;
54909;SDS011;63189;51.240;9.964;2022-11-13T00:31:56;11.40;;;8.18;;
54909;SDS011;63189;51.240;9.964;2022-11-13T00:34:21;10.75;;;7.85;;
54909;SDS011;63189;51.240;9.964;2022-11-13T00:36:47;12.75;;;8.23;;
54909;SDS011;63189;51.240;9.964;2022-11-13T00:39:12;14.35;;;9.32;;
54909;SDS011;63189;51.240;9.964;2022-11-13T00:41:37;13.40;;;9.90;;
54909;SDS011;63189;51.240;9.964;2022-11-13T00:44:03;12.30;;;7.70;;
54909;SDS011;63189;51.240;9.964;2022-11-13T00:46:28;11.68;;;7.90;;
54909;SDS011;63189;51.240;9.964;2022-11-13T00:48:54;11.70;;;8.40;;
54909;SDS011;63189;51.240;9.964;2022-11-13T00:51:19;12.27;;;7.97;;
54909;SDS011;63189;51.240;9.964;2022-11-13T00:53:45;14.00;;;8.30;;
54909;SDS011;63189;51.240;9.964;2022-11-13T00:56:10;11.85;;;7.40;;
54909;SDS011;63189;51.240;9.964;2022-11-13T00:58:36;11.15;;;7.47;;
54909;SDS011;63189;51.240;9.964;2022-11-13T01:01:09;9.95;;;7.38;;
54909;SDS011;63189;51.240;9.964;2022-11-13T01:03:36;11.05;;;7.80;;
54909;SDS011;63189;51.240;9.964;2022-11-13T01:06:13;12.38;;;7.90;;
54909;SDS011;63189;51.240;9.964;2022-11-13T01:08:46;8.52;;;5.97;;
54909;SDS011;63189;51.240;9.964;2022-11-13T01:11:17;7.70;;;5.68;;
54909;SDS011;63189;51.240;9.964;2022-11-13T01:13:45;10.23;;;6.22;;
54909;SDS011;63189;51.240;9.964;2022-11-13T01:16:12;7.07;;;5.28;;
54909;SDS011;63189;51.240;9.964;2022-11-13T01:18:39;8.10;;;5.28;;
54909;SDS011;63189;51.240;9.964;2022-11-13T01:21:09;6.10;;;4.43;;
54909;SDS011;63189;51.240;9.964;2022-11-13T01:28:37;5.10;;;4.03;;
54909;SDS011;63189;51.240;9.964;2022-11-13T01:31:07;5.85;;;4.22;;
54909;SDS011;63189;51.240;9.964;2022-11-13T01:33:35;6.28;;;4.60;;
54909;SDS011;63189;51.240;9.964;2022-11-13T01:36:04;7.90;;;5.85;;
54909;SDS011;63189;51.240;9.964;2022-11-13T01:38:32;7.03;;;4.90;;
54909;SDS011;63189;51.240;9.964;2022-11-13T01:40:57;6.82;;;4.55;;
54909;SDS011;63189;51.240;9.964;2022-11-13T01:48:21;7.95;;;5.47;;
54909;SDS011;63189;51.240;9.964;2022-11-13T01:50:47;9.18;;;5.47;;
54909;SDS011;63189;51.240;9.964;2022-11-13T01:53:12;8.13;;;5.85;;
54909;SDS011;63189;51.240;9.964;2022-11-13T01:55:38;8.80;;;6.30;;
54909;SDS011;63189;51.240;9.964;2022-11-13T01:58:04;7.80;;;5.43;;
54909;SDS011;63189;51.240;9.964;2022-11-13T02:00:32;9.02;;;6.03;;
54909;SDS011;63189;51.240;9.964;2022-11-13T02:02:57;7.65;;;5.20;;
54909;SDS011;63189;51.240;9.964;2022-11-13T02:05:22;6.53;;;4.85;;
54909;SDS011;63189;51.240;9.964;2022-11-13T02:07:48;8.00;;;5.43;;
54909;SDS011;63189;51.240;9.964;2022-11-13T02:10:13;8.43;;;5.85;;
54909;SDS011;63189;51.240;9.964;2022-11-13T02:12:40;9.07;;;6.10;;
54909;SDS011;63189;51.240;9.964;2022-11-13T02:15:07;8.98;;;5.85;;
54909;SDS011;63189;51.240;9.964;2022-11-13T02:17:38;8.35;;;6.40;;
54909;SDS011;63189;51.240;9.964;2022-11-13T02:20:09;8.30;;;5.10;;
54909;SDS011;63189;51.240;9.964;2022-11-13T02:22:43;8.50;;;6.13;;
54909;SDS011;63189;51.240;9.964;2022-11-13T02:25:10;7.22;;;5.20;;
54909;SDS011;63189;51.240;9.964;2022-11-13T02:27:38;8.15;;;6.10;;
54909;SDS011;63189;51.240;9.964;2022-11-13T02:30:15;6.13;;;4.72;;
54909;SDS011;63189;51.240;9.964;2022-11-13T02:32:49;7.47;;;5.30;;
54909;SDS011;63189;51.240;9.964;2022-11-13T02:35:29;6.63;;;5.20;;
54909;SDS011;63189;51.240;9.964;2022-11-13T02:37:56;6.85;;;4.70;;
54909;SDS011;63189;51.240;9.964;2022-11-13T02:40:23;7.22;;;4.88;;
54909;SDS011;63189;51.240;9.964;2022-11-13T02:42:49;8.13;;;6.53;;
54909;SDS011;63189;51.240;9.964;2022-11-13T02:45:14;8.50;;;5.95;;
54909;SDS011;63189;51.240;9.964;2022-11-13T02:47:40;7.70;;;5.63;;
54909;SDS011;63189;51.240;9.964;2022-11-13T02:50:06;7.22;;;4.60;;
54909;SDS011;63189;51.240;9.964;2022-11-13T02:52:32;7.57;;;5.35;;
54909;SDS011;63189;51.240;9.964;2022-11-13T02:54:57;7.82;;;5.22;;
54909;SDS011;63189;51.240;9.964;2022-11-13T02:57:23;8.05;;;5.82;;
54909;SDS011;63189;51.240;9.964;2022-11-13T02:59:48;8.25;;;5.68;;
54909;SDS011;63189;51.240;9.964;2022-11-13T03:02:13;7.22;;;5.30;;
54909;SDS011;63189;51.240;9.964;2022-11-13T03:04:39;10.10;;;6.60;;
54909;SDS011;63189;51.240;9.964;2022-11-13T03:07:04;9.65;;;6.32;;
54909;SDS011;63189;51.240;9.964;2022-11-13T03:09:29;9.27;;;5.90;;
54909;SDS011;63189;51.240;9.964;2022-11-13T03:11:55;7.97;;;5.45;;
54909;SDS011;63189;51.240;9.964;2022-11-13T03:14:20;7.63;;;5.38;;
54909;SDS011;63189;51.240;9.964;2022-11-13T03:16:46;8.65;;;5.55;;
54909;SDS011;63189;51.240;9.964;2022-11-13T03:19:11;8.60;;;5.80;;
54909;SDS011;63189;51.240;9.964;2022-11-13T03:21:36;8.55;;;5.78;;
54909;SDS011;63189;51.240;9.964;2022-11-13T03:24:02;8.20;;;5.90;;
54909;SDS011;63189;51.240;9.964;2022-11-13T03:26:27;8.98;;;6.00;;
54909;SDS011;63189;51.240;9.964;2022-11-13T03:28:53;8.05;;;6.15;;
54909;SDS011;63189;51.240;9.964;2022-11-13T03:31:19;9.23;;;6.75;;
54909;SDS011;63189;51.240;9.964;2022-11-13T03:33:44;9.57;;;6.18;;
54909;SDS011;63189;51.240;9.964;2022-11-13T03:36:10;8.10;;;6.00;;
54909;SDS011;63189;51.240;9.964;2022-11-13T03:38:35;8.93;;;6.57;;
54909;SDS011;63189;51.240;9.964;2022-11-13T03:41:01;9.23;;;6.50;;
54909;SDS011;63189;51.240;9.964;2022-11-13T03:43:27;10.23;;;6.65;;
54909;SDS011;63189;51.240;9.964;2022-11-13T03:45:52;9.82;;;7.20;;
54909;SDS011;63189;51.240;9.964;2022-11-13T03:48:18;10.63;;;7.18;;
54909;SDS011;63189;51.240;9.964;2022-11-13T03:50:44;10.10;;;7.32;;
54909;SDS011;63189;51.240;9.964;2022-11-13T03:53:12;10.90;;;8.25;;
54909;SDS011;63189;51.240;9.964;2022-11-13T03:55:38;10.43;;;7.47;;
54909;SDS011;63189;51.240;9.964;2022-11-13T03:58:04;12.35;;;7.95;;
54909;SDS011;63189;51.240;9.964;2022-11-13T04:00:30;10.02;;;6.97;;
54909;SDS011;63189;51.240;9.964;2022-11-13T04:02:55;10.23;;;7.63;;
54909;SDS011;63189;51.240;9.964;2022-11-13T04:05:21;9.55;;;6.97;;
54909;SDS011;63189;51.240;9.964;2022-11-13T04:07:46;10.63;;;7.60;;
54909;SDS011;63189;51.240;9.964;2022-11-13T04:10:12;10.98;;;7.45;;
54909;SDS011;63189;51.240;9.964;2022-11-13T04:12:38;12.63;;;7.43;;
54909;SDS011;63189;51.240;9.964;2022-11-13T04:15:03;9.07;;;6.85;;
54909;SDS011;63189;51.240;9.964;2022-11-13T04:17:29;9.55;;;7.60;;
54909;SDS011;63189;51.240;9.964;2022-11-13T04:19:54;10.10;;;6.70;;
54909;SDS011;63189;51.240;9.964;2022-11-13T04:22:19;9.98;;;6.88;;
54909;SDS011;63189;51.240;9.964;2022-11-13T04:24:45;9.73;;;7.07;;
54909;SDS011;63189;51.240;9.964;2022-11-13T04:27:10;9.65;;;7.10;;
54909;SDS011;63189;51.240;9.964;2022-11-13T04:29:35;7.78;;;6.10;;
54909;SDS011;63189;51.240;9.964;2022-11-13T04:32:00;8.73;;;6.13;;
54909;SDS011;63189;51.240;9.964;2022-11-13T04:34:26;10.48;;;6.72;;
54909;SDS011;63189;51.240;9.964;2022-11-13T04:36:51;8.15;;;5.72;;
54909;SDS011;63189;51.240;9.964;2022-11-13T04:39:16;9.60;;;6.22;;
54909;SDS011;63189;51.240;9.964;2022-11-13T04:41:42;8.55;;;5.50;;
54909;SDS011;63189;51.240;9.964;2022-11-13T04:46:51;6.00;;;4.30;;
54909;SDS011;63189;51.240;9.964;2022-11-13T04:49:16;6.55;;;4.97;;
54909;SDS011;63189;51.240;9.964;2022-11-13T04:51:41;6.28;;;4.78;;
54909;SDS011;63189;51.240;9.964;2022-11-13T04:54:07;5.43;;;4.53;;
54909;SDS011;63189;51.240;9.964;2022-11-13T04:56:32;7.20;;;5.45;;
54909;SDS011;63189;51.240;9.964;2022-11-13T04:58:57;6.38;;;5.15;;
54909;SDS011;63189;51.240;9.964;2022-11-13T05:01:23;8.93;;;5.68;;
54909;SDS011;63189;51.240;9.964;2022-11-13T05:03:48;6.88;;;5.22;;
54909;SDS011;63189;51.240;9.964;2022-11-13T05:06:13;7.35;;;5.18;;
54909;SDS011;63189;51.240;9.964;2022-11-13T05:08:39;7.40;;;5.20;;
54909;SDS011;63189;51.240;9.964;2022-11-13T05:11:04;7.65;;;5.90;;
54909;SDS011;63189;51.240;9.964;2022-11-13T05:13:30;10.25;;;6.28;;
54909;SDS011;63189;51.240;9.964;2022-11-13T05:16:07;7.25;;;5.88;;
54909;SDS011;63189;51.240;9.964;2022-11-13T05:18:35;6.95;;;5.00;;
54909;SDS011;63189;51.240;9.964;2022-11-13T05:21:02;8.90;;;6.10;;
54909;SDS011;63189;51.240;9.964;2022-11-13T05:23:29;6.97;;;5.50;;
54909;SDS011;63189;51.240;9.964;2022-11-13T05:26:04;7.05;;;5.70;;
54909;SDS011;63189;51.240;9.964;2022-11-13T05:28:32;8.23;;;5.32;;
54909;SDS011;63189;51.240;9.964;2022-11-13T05:33:33;6.93;;;5.43;;
54909;SDS011;63189;51.240;9.964;2022-11-13T05:36:00;7.47;;;5.38;;
54909;SDS011;63189;51.240;9.964;2022-11-13T05:38:31;6.70;;;4.70;;
54909;SDS011;63189;51.240;9.964;2022-11-13T05:41:03;7.75;;;5.35;;
54909;SDS011;63189;51.240;9.964;2022-11-13T05:43:49;7.40;;;5.65;;
54909;SDS011;63189;51.240;9.964;2022-11-13T05:46:15;8.70;;;5.93;;
54909;SDS011;63189;51.240;9.964;2022-11-13T05:48:42;7.95;;;6.28;;
54909;SDS011;63189;51.240;9.964;2022-11-13T05:51:10;8.13;;;5.93;;
54909;SDS011;63189;51.240;9.964;2022-11-13T05:53:40;9.23;;;6.43;;
54909;SDS011;63189;51.240;9.964;2022-11-13T05:56:07;9.98;;;6.65;;
54909;SDS011;63189;51.240;9.964;2022-11-13T05:58:35;10.43;;;6.57;;
54909;SDS011;63189;51.240;9.964;2022-11-13T06:01:05;8.55;;;6.10;;
54909;SDS011;63189;51.240;9.964;2022-11-13T06:03:34;11.10;;;6.50;;
54909;SDS011;63189;51.240;9.964;2022-11-13T06:06:00;8.95;;;6.07;;
54909;SDS011;63189;51.240;9.964;2022-11-13T06:08:26;8.38;;;5.93;;
54909;SDS011;63189;51.240;9.964;2022-11-13T06:10:51;9.88;;;6.75;;
54909;SDS011;63189;51.240;9.964;2022-11-13T06:13:17;8.15;;;5.82;;
54909;SDS011;63189;51.240;9.964;2022-11-13T06:15:42;7.82;;;5.47;;
54909;SDS011;63189;51.240;9.964;2022-11-13T06:18:08;8.82;;;6.32;;
54909;SDS011;63189;51.240;9.964;2022-11-13T06:20:34;9.68;;;5.75;;
54909;SDS011;63189;51.240;9.964;2022-11-13T06:23:00;12.05;;;6.28;;
54909;SDS011;63189;51.240;9.964;2022-11-13T06:25:25;8.32;;;5.75;;
54909;SDS011;63189;51.240;9.964;2022-11-13T06:27:51;8.70;;;6.32;;
54909;SDS011;63189;51.240;9.964;2022-11-13T06:30:17;8.30;;;5.07;;
54909;SDS011;63189;51.240;9.964;2022-11-13T06:32:43;7.47;;;5.72;;
54909;SDS011;63189;51.240;9.964;2022-11-13T06:35:08;7.35;;;5.47;;
54909;SDS011;63189;51.240;9.964;2022-11-13T06:37:33;7.82;;;5.93;;
54909;SDS011;63189;51.240;9.964;2022-11-13T06:39:59;7.75;;;5.70;;
54909;SDS011;63189;51.240;9.964;2022-11-13T06:42:24;8.07;;;6.40;;
54909;SDS011;63189;51.240;9.964;2022-11-13T06:44:50;8.85;;;6.25;;
54909;SDS011;63189;51.240;9.964;2022-11-13T06:47:16;6.55;;;4.93;;
54909;SDS011;63189;51.240;9.964;2022-11-13T06:49:41;7.78;;;5.45;;
54909;SDS011;63189;51.240;9.964;2022-11-13T06:52:06;9.65;;;6.60;;
54909;SDS011;63189;51.240;9.964;2022-11-13T06:54:32;10.27;;;6.00;;
54909;SDS011;63189;51.240;9.964;2022-11-13T06:56:57;8.90;;;6.05;;
54909;SDS011;63189;51.240;9.964;2022-11-13T06:59:22;9.57;;;6.65;;
54909;SDS011;63189;51.240;9.964;2022-11-13T07:01:49;10.20;;;6.65;;
54909;SDS011;63189;51.240;9.964;2022-11-13T07:04:14;8.77;;;6.50;;
54909;SDS011;63189;51.240;9.964;2022-11-13T07:06:40;10.13;;;7.15;;
54909;SDS011;63189;51.240;9.964;2022-11-13T07:09:05;10.85;;;8.48;;
54909;SDS011;63189;51.240;9.964;2022-11-13T07:11:30;13.55;;;9.95;;
54909;SDS011;63189;51.240;9.964;2022-11-13T07:13:55;16.23;;;10.75;;
54909;SDS011;63189;51.240;9.964;2022-11-13T07:16:21;18.10;;;12.52;;
54909;SDS011;63189;51.240;9.964;2022-11-13T07:18:50;15.73;;;11.68;;
54909;SDS011;63189;51.240;9.964;2022-11-13T07:21:16;15.32;;;11.10;;
54909;SDS011;63189;51.240;9.964;2022-11-13T07:23:42;17.77;;;12.18;;
54909;SDS011;63189;51.240;9.964;2022-11-13T07:26:10;15.85;;;10.85;;
54909;SDS011;63189;51.240;9.964;2022-11-13T07:28:38;15.57;;;10.85;;
54909;SDS011;63189;51.240;9.964;2022-11-13T07:31:04;14.52;;;9.82;;
54909;SDS011;63189;51.240;9.964;2022-11-13T07:33:30;14.95;;;10.27;;
54909;SDS011;63189;51.240;9.964;2022-11-13T07:35:56;14.45;;;10.40;;
54909;SDS011;63189;51.240;9.964;2022-11-13T07:38:21;13.10;;;9.73;;
54909;SDS011;63189;51.240;9.964;2022-11-13T07:40:47;10.98;;;8.07;;
54909;SDS011;63189;51.240;9.964;2022-11-13T07:43:13;13.40;;;9.18;;
54909;SDS011;63189;51.240;9.964;2022-11-13T07:45:38;14.38;;;9.20;;
54909;SDS011;63189;51.240;9.964;2022-11-13T07:48:04;12.68;;;8.82;;
54909;SDS011;63189;51.240;9.964;2022-11-13T07:50:30;10.65;;;8.20;;
54909;SDS011;63189;51.240;9.964;2022-11-13T07:52:59;11.02;;;8.20;;
54909;SDS011;63189;51.240;9.964;2022-11-13T07:55:26;15.40;;;8.68;;
54909;SDS011;63189;51.240;9.964;2022-11-13T07:57:56;11.77;;;8.48;;
54909;SDS011;63189;51.240;9.964;2022-11-13T08:00:25;10.57;;;8.60;;
54909;SDS011;63189;51.240;9.964;2022-11-13T08:02:51;12.82;;;9.45;;
54909;SDS011;63189;51.240;9.964;2022-11-13T08:05:16;12.80;;;8.27;;
54909;SDS011;63189;51.240;9.964;2022-11-13T08:07:45;12.77;;;8.50;;
54909;SDS011;63189;51.240;9.964;2022-11-13T08:10:15;12.73;;;8.90;;
54909;SDS011;63189;51.240;9.964;2022-11-13T08:12:42;12.40;;;8.48;;
54909;SDS011;63189;51.240;9.964;2022-11-13T08:15:07;11.50;;;8.75;;
54909;SDS011;63189;51.240;9.964;2022-11-13T08:17:33;13.55;;;9.07;;
54909;SDS011;63189;51.240;9.964;2022-11-13T08:19:58;12.65;;;8.60;;
54909;SDS011;63189;51.240;9.964;2022-11-13T08:22:24;11.60;;;8.25;;
54909;SDS011;63189;51.240;9.964;2022-11-13T08:24:49;11.18;;;8.45;;
54909;SDS011;63189;51.240;9.964;2022-11-13T08:27:19;11.45;;;8.30;;
54909;SDS011;63189;51.240;9.964;2022-11-13T08:29:45;12.52;;;7.63;;
54909;SDS011;63189;51.240;9.964;2022-11-13T08:32:15;13.48;;;8.27;;
54909;SDS011;63189;51.240;9.964;2022-11-13T08:34:41;10.73;;;8.10;;
54909;SDS011;63189;51.240;9.964;2022-11-13T08:37:07;12.60;;;7.97;;
54909;SDS011;63189;51.240;9.964;2022-11-13T08:39:35;11.18;;;7.20;;
54909;SDS011;63189;51.240;9.964;2022-11-13T08:42:01;10.52;;;7.18;;
54909;SDS011;63189;51.240;9.964;2022-11-13T08:44:27;10.65;;;6.90;;
54909;SDS011;63189;51.240;9.964;2022-11-13T08:46:53;10.52;;;7.55;;
54909;SDS011;63189;51.240;9.964;2022-11-13T08:49:18;10.27;;;7.15;;
54909;SDS011;63189;51.240;9.964;2022-11-13T08:51:44;7.05;;;5.95;;
54909;SDS011;63189;51.240;9.964;2022-11-13T08:54:12;5.97;;;5.07;;
54909;SDS011;63189;51.240;9.964;2022-11-13T08:56:39;8.73;;;5.50;;
54909;SDS011;63189;51.240;9.964;2022-11-13T08:59:04;7.10;;;5.70;;
54909;SDS011;63189;51.240;9.964;2022-11-13T09:01:30;9.00;;;6.18;;
54909;SDS011;63189;51.240;9.964;2022-11-13T09:03:55;6.70;;;5.20;;
54909;SDS011;63189;51.240;9.964;2022-11-13T09:06:25;8.43;;;6.22;;
54909;SDS011;63189;51.240;9.964;2022-11-13T09:08:51;8.93;;;6.38;;
54909;SDS011;63189;51.240;9.964;2022-11-13T09:11:16;10.75;;;7.10;;
54909;SDS011;63189;51.240;9.964;2022-11-13T09:13:42;12.68;;;7.78;;
54909;SDS011;63189;51.240;9.964;2022-11-13T09:16:07;10.35;;;8.07;;
54909;SDS011;63189;51.240;9.964;2022-11-13T09:18:33;11.40;;;8.00;;
54909;SDS011;63189;51.240;9.964;2022-11-13T09:21:01;10.70;;;7.40;;
54909;SDS011;63189;51.240;9.964;2022-11-13T09:23:27;11.40;;;7.13;;
54909;SDS011;63189;51.240;9.964;2022-11-13T09:25:53;9.43;;;7.40;;
54909;SDS011;63189;51.240;9.964;2022-11-13T09:28:18;9.98;;;7.50;;
54909;SDS011;63189;51.240;9.964;2022-11-13T09:30:47;10.32;;;7.70;;
54909;SDS011;63189;51.240;9.964;2022-11-13T09:33:12;9.82;;;7.10;;
54909;SDS011;63189;51.240;9.964;2022-11-13T09:35:41;10.77;;;7.60;;
54909;SDS011;63189;51.240;9.964;2022-11-13T09:38:13;12.75;;;8.10;;
54909;SDS011;63189;51.240;9.964;2022-11-13T09:43:12;10.90;;;7.97;;
54909;SDS011;63189;51.240;9.964;2022-11-13T09:45:46;11.68;;;7.45;;
54909;SDS011;63189;51.240;9.964;2022-11-13T09:48:19;9.75;;;7.03;;
54909;SDS011;63189;51.240;9.964;2022-11-13T09:51:10;9.13;;;7.22;;
54909;SDS011;63189;51.240;9.964;2022-11-13T09:53:39;10.30;;;7.50;;
54909;SDS011;63189;51.240;9.964;2022-11-13T09:58:56;9.30;;;7.13;;
54909;SDS011;63189;51.240;9.964;2022-11-13T10:04:52;7.97;;;5.95;;
54909;SDS011;63189;51.240;9.964;2022-11-13T10:12:57;8.57;;;5.78;;
54909;SDS011;63189;51.240;9.964;2022-11-13T10:15:24;7.07;;;5.10;;
54909;SDS011;63189;51.240;9.964;2022-11-13T10:17:52;6.97;;;4.97;;
54909;SDS011;63189;51.240;9.964;2022-11-13T10:25:30;7.28;;;5.15;;
54909;SDS011;63189;51.240;9.964;2022-11-13T10:28:01;7.43;;;5.07;;
54909;SDS011;63189;51.240;9.964;2022-11-13T10:30:34;8.30;;;5.15;;
54909;SDS011;63189;51.240;9.964;2022-11-13T10:33:04;8.23;;;4.90;;
54909;SDS011;63189;51.240;9.964;2022-11-13T10:40:35;7.95;;;5.28;;
54909;SDS011;63189;51.240;9.964;2022-11-13T10:43:03;6.15;;;4.47;;
54909;SDS011;63189;51.240;9.964;2022-11-13T10:45:52;6.72;;;4.35;;
54909;SDS011;63189;51.240;9.964;2022-11-13T10:48:21;6.50;;;4.78;;
54909;SDS011;63189;51.240;9.964;2022-11-13T10:51:00;6.32;;;4.72;;
54909;SDS011;63189;51.240;9.964;2022-11-13T10:53:38;6.70;;;4.97;;
54909;SDS011;63189;51.240;9.964;2022-11-13T11:01:38;6.13;;;4.43;;
54909;SDS011;63189;51.240;9.964;2022-11-13T11:04:05;7.28;;;4.53;;
54909;SDS011;63189;51.240;9.964;2022-11-13T11:06:35;6.35;;;4.03;;
54909;SDS011;63189;51.240;9.964;2022-11-13T11:11:37;5.82;;;4.53;;
54909;SDS011;63189;51.240;9.964;2022-11-13T11:17:01;6.13;;;3.63;;
54909;SDS011;63189;51.240;9.964;2022-11-13T11:19:28;7.53;;;4.50;;
54909;SDS011;63189;51.240;9.964;2022-11-13T11:22:06;6.18;;;4.25;;
54909;SDS011;63189;51.240;9.964;2022-11-13T11:24:49;5.20;;;3.70;;
54909;SDS011;63189;51.240;9.964;2022-11-13T11:27:18;5.65;;;3.55;;
54909;SDS011;63189;51.240;9.964;2022-11-13T11:29:55;4.75;;;3.58;;
54909;SDS011;63189;51.240;9.964;2022-11-13T11:32:40;4.32;;;3.50;;
54909;SDS011;63189;51.240;9.964;2022-11-13T11:35:20;4.40;;;3.22;;
54909;SDS011;63189;51.240;9.964;2022-11-13T11:37:54;6.15;;;3.97;;
54909;SDS011;63189;51.240;9.964;2022-11-13T11:40:39;7.00;;;3.78;;
54909;SDS011;63189;51.240;9.964;2022-11-13T11:43:22;4.38;;;3.33;;
54909;SDS011;63189;51.240;9.964;2022-11-13T11:45:58;6.47;;;4.38;;
54909;SDS011;63189;51.240;9.964;2022-11-13T11:48:25;5.63;;;3.90;;
54909;SDS011;63189;51.240;9.964;2022-11-13T11:53:47;5.85;;;3.47;;
54909;SDS011;63189;51.240;9.964;2022-11-13T11:56:20;6.28;;;3.53;;
54909;SDS011;63189;51.240;9.964;2022-11-13T11:59:00;6.88;;;3.85;;
54909;SDS011;63189;51.240;9.964;2022-11-13T12:13:08;5.05;;;3.50;;
54909;SDS011;63189;51.240;9.964;2022-11-13T12:24:40;5.60;;;3.75;;
54909;SDS011;63189;51.240;9.964;2022-11-13T12:29:59;5.22;;;3.17;;
54909;SDS011;63189;51.240;9.964;2022-11-13T12:32:44;5.07;;;3.42;;
54909;SDS011;63189;51.240;9.964;2022-11-13T12:35:35;4.47;;;3.08;;
54909;SDS011;63189;51.240;9.964;2022-11-13T12:40:55;4.35;;;2.75;;
54909;SDS011;63189;51.240;9.964;2022-11-13T12:46:13;4.43;;;3.20;;
54909;SDS011;63189;51.240;9.964;2022-11-13T12:48:43;4.05;;;2.78;;
54909;SDS011;63189;51.240;9.964;2022-11-13T12:51:11;4.00;;;2.05;;
54909;SDS011;63189;51.240;9.964;2022-11-13T12:53:52;4.60;;;3.00;;
54909;SDS011;63189;51.240;9.964;2022-11-13T12:59:02;3.67;;;2.40;;
54909;SDS011;63189;51.240;9.964;2022-11-13T13:01:42;3.88;;;2.30;;
54909;SDS011;63189;51.240;9.964;2022-11-13T13:17:22;3.60;;;2.50;;
54909;SDS011;63189;51.240;9.964;2022-11-13T13:19:58;3.35;;;2.55;;
54909;SDS011;63189;51.240;9.964;2022-11-13T13:22:27;4.70;;;2.97;;
54909;SDS011;63189;51.240;9.964;2022-11-13T13:28:41;4.45;;;2.42;;
54909;SDS011;63189;51.240;9.964;2022-11-13T13:31:00;3.70;;;2.53;;
54909;SDS011;63189;51.240;9.964;2022-11-13T13:41:43;4.20;;;2.70;;
54909;SDS011;63189;51.240;9.964;2022-11-13T13:44:51;3.95;;;2.90;;
54909;SDS011;63189;51.240;9.964;2022-11-13T13:47:28;4.68;;;2.50;;
54909;SDS011;63189;51.240;9.964;2022-11-13T13:50:26;3.33;;;1.98;;
54909;SDS011;63189;51.240;9.964;2022-11-13T13:52:58;2.80;;;2.13;;
54909;SDS011;63189;51.240;9.964;2022-11-13T13:57:56;2.78;;;1.92;;
54909;SDS011;63189;51.240;9.964;2022-11-13T14:00:23;2.97;;;1.95;;
54909;SDS011;63189;51.240;9.964;2022-11-13T14:02:51;2.67;;;1.80;;
54909;SDS011;63189;51.240;9.964;2022-11-13T14:07:57;2.90;;;1.63;;
54909;SDS011;63189;51.240;9.964;2022-11-13T14:10:24;2.47;;;1.30;;
54909;SDS011;63189;51.240;9.964;2022-11-13T14:12:52;2.70;;;1.42;;
54909;SDS011;63189;51.240;9.964;2022-11-13T14:15:28;2.45;;;1.60;;
54909;SDS011;63189;51.240;9.964;2022-11-13T14:20:45;2.25;;;1.30;;
54909;SDS011;63189;51.240;9.964;2022-11-13T14:23:12;1.98;;;1.35;;
54909;SDS011;63189;51.240;9.964;2022-11-13T14:25:56;1.88;;;1.20;;
54909;SDS011;63189;51.240;9.964;2022-11-13T14:28:26;2.25;;;1.25;;
54909;SDS011;63189;51.240;9.964;2022-11-13T14:31:00;2.08;;;1.33;;
54909;SDS011;63189;51.240;9.964;2022-11-13T14:33:30;2.22;;;1.30;;
54909;SDS011;63189;51.240;9.964;2022-11-13T14:35:58;2.28;;;1.17;;
54909;SDS011;63189;51.240;9.964;2022-11-13T14:38:25;2.22;;;1.30;;
54909;SDS011;63189;51.240;9.964;2022-11-13T14:40:52;1.63;;;1.30;;
54909;SDS011;63189;51.240;9.964;2022-11-13T14:43:22;1.63;;;1.05;;
54909;SDS011;63189;51.240;9.964;2022-11-13T14:45:52;2.45;;;1.33;;
54909;SDS011;63189;51.240;9.964;2022-11-13T14:48:20;1.50;;;1.17;;
54909;SDS011;63189;51.240;9.964;2022-11-13T14:50:52;1.13;;;1.00;;
54909;SDS011;63189;51.240;9.964;2022-11-13T14:56:04;2.40;;;1.10;;
54909;SDS011;63189;51.240;9.964;2022-11-13T14:58:43;3.10;;;1.58;;
54909;SDS011;63189;51.240;9.964;2022-11-13T15:01:14;1.88;;;1.17;;
54909;SDS011;63189;51.240;9.964;2022-11-13T15:03:43;1.30;;;0.90;;
54909;SDS011;63189;51.240;9.964;2022-11-13T15:06:22;1.58;;;1.13;;
54909;SDS011;63189;51.240;9.964;2022-11-13T15:08:50;1.67;;;1.27;;
54909;SDS011;63189;51.240;9.964;2022-11-13T15:11:20;1.88;;;1.17;;
54909;SDS011;63189;51.240;9.964;2022-11-13T15:13:47;2.63;;;1.10;;
54909;SDS011;63189;51.240;9.964;2022-11-13T15:16:13;2.15;;;1.10;;
54909;SDS011;63189;51.240;9.964;2022-11-13T15:18:43;2.42;;;0.88;;
54909;SDS011;63189;51.240;9.964;2022-11-13T15:21:16;1.30;;;0.95;;
54909;SDS011;63189;51.240;9.964;2022-11-13T15:23:42;1.70;;;0.80;;
54909;SDS011;63189;51.240;9.964;2022-11-13T15:26:11;1.35;;;0.90;;
54909;SDS011;63189;51.240;9.964;2022-11-13T15:28:36;1.40;;;0.80;;
54909;SDS011;63189;51.240;9.964;2022-11-13T15:31:02;1.95;;;0.95;;
54909;SDS011;63189;51.240;9.964;2022-11-13T15:33:40;1.65;;;0.82;;
54909;SDS011;63189;51.240;9.964;2022-11-13T15:36:07;2.53;;;1.20;;
54909;SDS011;63189;51.240;9.964;2022-11-13T15:38:33;1.90;;;1.00;;
54909;SDS011;63189;51.240;9.964;2022-11-13T15:40:58;2.00;;;1.08;;
54909;SDS011;63189;51.240;9.964;2022-11-13T15:43:23;2.38;;;1.10;;
54909;SDS011;63189;51.240;9.964;2022-11-13T15:45:48;1.45;;;0.90;;
54909;SDS011;63189;51.240;9.964;2022-11-13T15:48:14;3.53;;;1.25;;
54909;SDS011;63189;51.240;9.964;2022-11-13T15:50:39;7.90;;;2.83;;
54909;SDS011;63189;51.240;9.964;2022-11-13T15:53:04;8.38;;;3.28;;
54909;SDS011;63189;51.240;9.964;2022-11-13T15:55:32;2.65;;;1.33;;
54909;SDS011;63189;51.240;9.964;2022-11-13T15:57:58;2.85;;;1.70;;
54909;SDS011;63189;51.240;9.964;2022-11-13T16:00:25;4.18;;;1.98;;
54909;SDS011;63189;51.240;9.964;2022-11-13T16:02:52;2.83;;;1.45;;
54909;SDS011;63189;51.240;9.964;2022-11-13T16:05:20;2.42;;;1.73;;
54909;SDS011;63189;51.240;9.964;2022-11-13T16:07:49;2.42;;;1.48;;
54909;SDS011;63189;51.240;9.964;2022-11-13T16:10:15;2.40;;;1.40;;
54909;SDS011;63189;51.240;9.964;2022-11-13T16:12:41;2.38;;;1.40;;
54909;SDS011;63189;51.240;9.964;2022-11-13T16:15:06;2.55;;;1.70;;
54909;SDS011;63189;51.240;9.964;2022-11-13T16:17:36;2.65;;;2.05;;
54909;SDS011;63189;51.240;9.964;2022-11-13T16:20:08;3.00;;;2.00;;
54909;SDS011;63189;51.240;9.964;2022-11-13T16:22:36;3.92;;;2.50;;
54909;SDS011;63189;51.240;9.964;2022-11-13T16:25:01;4.85;;;2.75;;
54909;SDS011;63189;51.240;9.964;2022-11-13T16:27:28;4.50;;;3.05;;
54909;SDS011;63189;51.240;9.964;2022-11-13T16:29:55;6.45;;;3.80;;
54909;SDS011;63189;51.240;9.964;2022-11-13T16:32:20;6.00;;;3.85;;
54909;SDS011;63189;51.240;9.964;2022-11-13T16:34:46;5.13;;;3.65;;
54909;SDS011;63189;51.240;9.964;2022-11-13T16:37:13;6.03;;;3.83;;
54909;SDS011;63189;51.240;9.964;2022-11-13T16:39:40;6.15;;;3.80;;
54909;SDS011;63189;51.240;9.964;2022-11-13T16:42:05;6.00;;;4.07;;
54909;SDS011;63189;51.240;9.964;2022-11-13T16:44:30;5.75;;;3.83;;
54909;SDS011;63189;51.240;9.964;2022-11-13T16:46:56;6.43;;;4.35;;
54909;SDS011;63189;51.240;9.964;2022-11-13T16:49:21;8.30;;;4.43;;